FVCR weather

Chizarira Airport
Chizarira, Matabeleland North Province, Zimbabwe

Public forecast

Using degrees Celsius for public forecast. Weather courtesy of forecast.io.

METAR (pilot weather report)

Report is more than 6 hours old.

Closest report is Choma Airport, 74.7 nm (138.4 km) NW. Retrieved 2010/07/23 06:00 UTC (9 years ago):

FLCH 230600Z 00903KT CAVOK 12/09

TAF (pilot weather forecast)

Forecast is more than 12 hours old.

Closest forecast is Hwange National Park Airport, 75.8 nm (140.4 km) SW. Retrieved 2014/01/24 05:00 UTC (6 years ago):

TAF FVWN 240400Z 2405/2418 VRB03KT CAVOK BECMG 2408/2410 9999 SCT030TCU FEW025CB PROB30 TEMPO 2410/2414 -TSRA